createdAt,value
2022-12-12T00:01:28.403Z,11.15
2022-12-12T00:03:55.941Z,7.88
2022-12-12T00:06:23.568Z,10.15
2022-12-12T00:08:50.968Z,11.10
2022-12-12T00:11:18.079Z,10.00
2022-12-12T00:13:45.329Z,9.63
2022-12-12T00:16:13.137Z,10.43
2022-12-12T00:18:40.716Z,10.43
2022-12-12T00:21:09.355Z,11.43
2022-12-12T00:23:36.466Z,10.18
2022-12-12T00:26:06.919Z,10.27
2022-12-12T00:28:34.418Z,10.48
2022-12-12T00:31:01.534Z,11.10
2022-12-12T00:33:28.678Z,10.00
2022-12-12T00:35:56.019Z,10.80
2022-12-12T00:38:24.395Z,10.95
2022-12-12T00:40:55.603Z,10.07
2022-12-12T00:43:22.750Z,10.05
2022-12-12T00:45:49.911Z,10.57
2022-12-12T00:48:16.970Z,11.38
2022-12-12T00:50:44.314Z,9.70
2022-12-12T00:53:13.147Z,10.50
2022-12-12T00:55:40.591Z,9.48
2022-12-12T00:58:08.694Z,10.55
2022-12-12T01:00:35.843Z,10.32
2022-12-12T01:03:02.978Z,10.43
2022-12-12T01:05:31.290Z,11.63
2022-12-12T01:07:58.857Z,11.55
2022-12-12T01:10:26.045Z,8.13
2022-12-12T01:12:53.147Z,10.40
2022-12-12T01:15:20.523Z,10.40
2022-12-12T01:17:47.641Z,10.10
2022-12-12T01:20:19.161Z,9.80
2022-12-12T01:22:46.423Z,9.75
2022-12-12T01:25:14.595Z,11.85
2022-12-12T01:27:41.979Z,11.95
2022-12-12T01:30:09.783Z,11.15
2022-12-12T01:32:36.898Z,10.68
2022-12-12T01:35:08.065Z,8.57
2022-12-12T01:37:35.871Z,12.07
2022-12-12T01:40:03.266Z,11.30
2022-12-12T01:42:30.360Z,10.13
2022-12-12T01:44:57.538Z,11.15
2022-12-12T01:47:25.198Z,12.02
2022-12-12T01:49:56.903Z,9.85
2022-12-12T01:52:32.779Z,11.40
2022-12-12T01:55:01.956Z,11.52
2022-12-12T01:57:40.339Z,11.13
2022-12-12T02:00:08.570Z,10.55
2022-12-12T02:02:35.962Z,11.10
2022-12-12T02:05:05.567Z,11.93
2022-12-12T02:07:32.700Z,11.57
2022-12-12T02:09:59.775Z,11.05
2022-12-12T02:12:26.848Z,10.63
2022-12-12T02:14:54.721Z,10.90
2022-12-12T02:17:42.027Z,11.63
2022-12-12T02:20:12.278Z,11.75
2022-12-12T02:22:58.231Z,11.60
2022-12-12T02:25:44.722Z,12.40
2022-12-12T02:28:24.665Z,10.38
2022-12-12T02:30:54.854Z,11.15
2022-12-12T02:33:21.927Z,10.38
2022-12-12T02:35:54.536Z,13.00
2022-12-12T02:38:25.268Z,11.05
2022-12-12T02:41:11.121Z,12.40
2022-12-12T02:43:57.031Z,11.18
2022-12-12T02:46:24.247Z,12.15
2022-12-12T02:48:54.151Z,13.02
2022-12-12T02:51:21.565Z,11.18
2022-12-12T02:53:48.697Z,9.43
2022-12-12T02:56:34.579Z,9.85
2022-12-12T02:59:01.733Z,10.68
2022-12-12T03:01:36.642Z,10.25
2022-12-12T03:04:26.536Z,11.35
2022-12-12T03:07:22.040Z,11.93
2022-12-12T03:10:00.183Z,10.75
2022-12-12T03:12:41.460Z,9.10
2022-12-12T03:15:11.784Z,11.15
2022-12-12T03:17:44.146Z,10.45
2022-12-12T03:20:11.229Z,11.02
2022-12-12T03:22:46.657Z,10.25
2022-12-12T03:27:46.042Z,10.30
2022-12-12T03:30:14.651Z,12.32
2022-12-12T03:33:01.138Z,11.90
2022-12-12T03:35:31.103Z,12.07
2022-12-12T03:38:27.345Z,12.32
2022-12-12T03:40:59.270Z,9.55
2022-12-12T03:43:41.125Z,10.65
2022-12-12T03:46:12.616Z,9.60
2022-12-12T03:48:44.806Z,11.00
2022-12-12T03:51:18.118Z,10.50
2022-12-12T03:53:48.820Z,10.02
2022-12-12T03:56:29.869Z,11.80
2022-12-12T03:58:59.651Z,8.73
2022-12-12T04:01:30.611Z,11.18
2022-12-12T04:04:12.678Z,10.60
2022-12-12T04:06:42.997Z,12.05
2022-12-12T04:09:33.388Z,11.48
2022-12-12T04:12:28.180Z,11.40
2022-12-12T04:15:01.218Z,11.57
2022-12-12T04:17:40.839Z,10.60
2022-12-12T04:20:33.989Z,10.98
2022-12-12T04:23:24.238Z,9.73
2022-12-12T04:26:26.054Z,10.02
2022-12-12T04:28:59.318Z,10.18
2022-12-12T04:31:28.840Z,11.35
2022-12-12T04:33:58.858Z,10.20
2022-12-12T04:36:26.655Z,10.57
2022-12-12T04:38:53.749Z,11.70
2022-12-12T04:41:21.918Z,9.38
2022-12-12T04:43:50.406Z,6.93
2022-12-12T04:46:22.550Z,10.48
2022-12-12T04:48:54.015Z,12.30
2022-12-12T04:51:42.503Z,10.70
2022-12-12T04:54:12.295Z,12.05
2022-12-12T04:56:41.525Z,11.35
2022-12-12T05:01:53.430Z,11.80
2022-12-12T05:04:44.105Z,12.02
2022-12-12T05:07:13.213Z,10.60
2022-12-12T05:09:40.657Z,12.15
2022-12-12T05:12:07.863Z,11.60
2022-12-12T05:14:35.010Z,12.93
2022-12-12T05:17:05.633Z,12.00
2022-12-12T05:19:32.858Z,10.30
2022-12-12T05:21:59.914Z,10.90
2022-12-12T05:24:31.159Z,11.98
2022-12-12T05:26:58.981Z,10.65
2022-12-12T05:29:26.138Z,11.25
2022-12-12T05:31:53.311Z,10.63
2022-12-12T05:34:20.447Z,11.05
2022-12-12T05:36:47.943Z,9.73
2022-12-12T05:39:15.051Z,11.32
2022-12-12T05:41:42.543Z,12.15
2022-12-12T05:44:09.758Z,12.25
2022-12-12T05:46:37.254Z,9.80
2022-12-12T05:49:04.381Z,11.60
2022-12-12T05:51:31.666Z,9.90
2022-12-12T05:53:58.822Z,11.63
2022-12-12T05:56:26.034Z,12.32
2022-12-12T05:58:53.088Z,12.18
2022-12-12T06:01:20.170Z,13.23
2022-12-12T06:03:47.402Z,12.48
2022-12-12T06:06:14.561Z,11.73
2022-12-12T06:08:41.733Z,12.52
2022-12-12T06:11:09.267Z,11.68
2022-12-12T06:13:37.329Z,13.30
2022-12-12T06:16:08.947Z,12.27
2022-12-12T06:18:36.475Z,9.25
2022-12-12T06:21:08.215Z,12.57
2022-12-12T06:23:39.499Z,11.98
2022-12-12T06:26:07.482Z,11.68
2022-12-12T06:28:36.713Z,12.25
2022-12-12T06:31:09.706Z,12.35
2022-12-12T06:33:39.824Z,10.98
2022-12-12T06:36:09.564Z,13.25
2022-12-12T06:38:36.744Z,10.52
2022-12-12T06:41:24.470Z,11.63
2022-12-12T06:43:51.911Z,11.65
2022-12-12T06:46:20.766Z,9.63
2022-12-12T06:48:48.378Z,10.32
2022-12-12T06:51:17.119Z,11.23
2022-12-12T06:53:44.474Z,12.20
2022-12-12T06:56:14.236Z,9.00
2022-12-12T06:58:41.367Z,13.02
2022-12-12T07:01:09.119Z,12.02
2022-12-12T07:03:36.337Z,12.23
2022-12-12T07:06:03.424Z,10.85
2022-12-12T07:08:30.597Z,12.52
2022-12-12T07:10:58.514Z,12.25
2022-12-12T07:13:25.656Z,12.50
2022-12-12T07:15:56.366Z,12.20
2022-12-12T07:18:23.537Z,11.85
2022-12-12T07:20:50.596Z,11.63
2022-12-12T07:23:17.825Z,11.70
2022-12-12T07:25:45.500Z,11.38
2022-12-12T07:28:13.546Z,11.82
2022-12-12T07:30:43.045Z,12.38
2022-12-12T07:33:10.420Z,12.02
2022-12-12T07:35:37.558Z,12.13
2022-12-12T07:38:05.224Z,10.95
2022-12-12T07:40:33.560Z,12.23
2022-12-12T07:43:00.994Z,12.65
2022-12-12T07:45:28.159Z,12.63
2022-12-12T07:47:55.327Z,11.88
2022-12-12T07:50:22.584Z,12.02
2022-12-12T07:52:49.848Z,13.80
2022-12-12T07:55:17.002Z,12.73
2022-12-12T07:57:44.101Z,13.88
2022-12-12T08:00:13.401Z,13.18
2022-12-12T08:02:40.553Z,13.15
2022-12-12T08:05:08.022Z,12.52
2022-12-12T08:07:35.199Z,12.68
2022-12-12T08:10:02.724Z,13.43
2022-12-12T08:12:30.468Z,12.75
2022-12-12T08:14:57.638Z,13.30
2022-12-12T08:17:24.792Z,12.55
2022-12-12T08:19:51.974Z,12.88
2022-12-12T08:22:19.673Z,12.35
2022-12-12T08:24:46.788Z,13.32
2022-12-12T08:27:15.781Z,13.40
2022-12-12T08:29:43.313Z,12.45
2022-12-12T08:32:10.955Z,12.48
2022-12-12T08:34:38.310Z,13.57
2022-12-12T08:37:05.620Z,12.85
2022-12-12T08:39:32.864Z,11.60
2022-12-12T08:42:00.375Z,13.07
2022-12-12T08:44:27.571Z,12.52
2022-12-12T08:46:54.759Z,12.57
2022-12-12T08:49:21.986Z,12.85
2022-12-12T08:51:53.339Z,12.40
2022-12-12T08:54:20.442Z,12.07
2022-12-12T08:56:47.875Z,10.70
2022-12-12T08:59:15.245Z,13.25
2022-12-12T09:01:42.565Z,13.20
2022-12-12T09:04:09.777Z,12.40
2022-12-12T09:06:36.899Z,12.88
2022-12-12T09:09:04.058Z,11.95
2022-12-12T09:11:31.147Z,12.77
2022-12-12T09:13:58.269Z,13.18
2022-12-12T09:16:27.587Z,12.60
2022-12-12T09:18:54.765Z,22.63
2022-12-12T09:21:21.957Z,13.88
2022-12-12T09:23:49.243Z,13.07
2022-12-12T09:26:17.896Z,13.90
2022-12-12T09:28:45.156Z,10.93
2022-12-12T09:31:12.811Z,13.27
2022-12-12T09:33:40.427Z,13.70
2022-12-12T09:36:08.712Z,14.60
2022-12-12T09:38:36.042Z,12.50
2022-12-12T09:41:05.086Z,14.43
2022-12-12T09:43:34.320Z,14.27
2022-12-12T09:46:02.293Z,15.52
2022-12-12T09:48:36.768Z,14.52
2022-12-12T09:51:04.049Z,13.02
2022-12-12T09:53:31.191Z,14.38
2022-12-12T09:56:07.666Z,13.60
2022-12-12T09:58:44.828Z,12.45
2022-12-12T10:01:14.511Z,12.32
2022-12-12T10:03:56.714Z,14.43
2022-12-12T10:06:39.361Z,14.07
2022-12-12T10:09:16.262Z,16.92
2022-12-12T10:11:54.528Z,11.63
2022-12-12T10:14:34.423Z,11.90
2022-12-12T10:17:03.242Z,13.35
2022-12-12T10:19:32.335Z,12.80
2022-12-12T10:24:45.239Z,11.98
2022-12-12T10:27:13.502Z,13.27
2022-12-12T10:29:47.068Z,12.88
2022-12-12T10:32:29.534Z,12.43
2022-12-12T10:35:26.359Z,11.60
2022-12-12T10:38:12.832Z,16.15
2022-12-12T10:40:45.237Z,14.95
2022-12-12T10:43:22.532Z,16.92
2022-12-12T10:45:55.886Z,11.38
2022-12-12T10:48:23.409Z,20.77
2022-12-12T10:50:56.735Z,11.40
2022-12-12T10:53:24.149Z,11.23
2022-12-12T10:55:59.767Z,12.95
2022-12-12T10:58:27.539Z,11.88
2022-12-12T11:01:02.283Z,13.15
2022-12-12T11:03:32.686Z,14.65
2022-12-12T11:06:03.749Z,15.30
2022-12-12T11:08:32.531Z,14.13
2022-12-12T11:11:19.147Z,11.50
2022-12-12T11:13:50.980Z,9.20
2022-12-12T11:16:19.386Z,9.52
2022-12-12T11:18:59.561Z,10.90
2022-12-12T11:21:27.544Z,11.27
2022-12-12T11:23:56.665Z,13.55
2022-12-12T11:28:58.014Z,13.13
2022-12-12T11:31:27.529Z,12.05
2022-12-12T11:34:02.463Z,13.93
2022-12-12T11:36:34.521Z,14.82
2022-12-12T11:39:02.450Z,10.55
2022-12-12T11:41:29.564Z,15.90
2022-12-12T11:43:59.965Z,14.48
2022-12-12T11:46:28.816Z,12.90
2022-12-12T11:48:57.599Z,12.52
2022-12-12T11:51:30.630Z,11.55
2022-12-12T11:53:58.510Z,10.80
2022-12-12T11:56:44.023Z,14.25
2022-12-12T11:59:29.718Z,10.98
2022-12-12T12:02:12.172Z,12.32
2022-12-12T12:04:53.518Z,10.05
2022-12-12T12:07:33.794Z,17.65
2022-12-12T12:10:09.078Z,15.20
2022-12-12T12:12:51.333Z,14.55
2022-12-12T12:15:30.715Z,18.23
2022-12-12T12:17:58.005Z,10.60
2022-12-12T12:20:34.155Z,13.95
2022-12-12T12:23:08.020Z,11.77
2022-12-12T12:25:43.496Z,10.90
2022-12-12T12:28:10.726Z,8.90
2022-12-12T12:30:59.428Z,9.73
2022-12-12T12:33:26.656Z,10.23
2022-12-12T12:35:53.773Z,10.88
2022-12-12T12:38:20.882Z,11.07
2022-12-12T12:41:00.299Z,8.00
2022-12-12T12:43:39.644Z,10.20
2022-12-12T12:46:20.758Z,10.52
2022-12-12T12:48:50.649Z,10.23
2022-12-12T12:51:20.906Z,9.20
2022-12-12T12:53:55.540Z,10.25
2022-12-12T12:56:33.306Z,15.63
2022-12-12T12:59:06.120Z,12.00
2022-12-12T13:01:36.770Z,8.70
2022-12-12T13:04:23.387Z,8.00
2022-12-12T13:06:57.061Z,8.93
2022-12-12T13:09:39.158Z,10.35
2022-12-12T13:12:13.904Z,9.35
2022-12-12T13:14:41.042Z,8.90
2022-12-12T13:17:11.999Z,9.88
2022-12-12T13:19:41.665Z,9.95
2022-12-12T13:22:15.039Z,10.45
2022-12-12T13:24:42.174Z,9.98
2022-12-12T13:27:19.407Z,14.60
2022-12-12T13:30:02.411Z,10.65
2022-12-12T13:32:46.091Z,14.15
2022-12-12T13:35:26.194Z,9.20
2022-12-12T13:37:54.380Z,12.57
2022-12-12T13:40:26.317Z,10.65
2022-12-12T13:42:53.432Z,9.95
2022-12-12T13:45:34.151Z,8.73
2022-12-12T13:48:07.537Z,8.73
2022-12-12T13:50:34.675Z,8.85
2022-12-12T13:53:08.274Z,9.07
2022-12-12T13:55:36.654Z,18.02
2022-12-12T13:58:20.601Z,16.05
2022-12-12T14:00:48.232Z,14.38
2022-12-12T14:03:15.586Z,10.32
2022-12-12T14:05:43.806Z,11.10
2022-12-12T14:08:10.952Z,12.90
2022-12-12T14:10:58.422Z,11.65
2022-12-12T14:15:58.743Z,10.18
2022-12-12T14:18:30.551Z,8.80
2022-12-12T14:21:05.891Z,8.75
2022-12-12T14:23:38.248Z,8.60
2022-12-12T14:26:23.842Z,9.48
2022-12-12T14:29:24.568Z,7.47
2022-12-12T14:32:07.919Z,10.82
2022-12-12T14:34:35.083Z,10.57
2022-12-12T14:37:20.912Z,9.45
2022-12-12T14:39:57.529Z,9.43
2022-12-12T14:42:27.673Z,10.45
2022-12-12T14:45:24.823Z,9.98
2022-12-12T14:48:11.287Z,9.70
2022-12-12T14:50:39.203Z,10.57
2022-12-12T14:53:14.822Z,11.70
2022-12-12T14:55:56.196Z,10.75
2022-12-12T15:00:51.952Z,9.80
2022-12-12T15:03:24.151Z,10.50
2022-12-12T15:06:10.186Z,10.20
2022-12-12T15:08:37.303Z,9.90
2022-12-12T15:11:04.513Z,10.00
2022-12-12T15:13:31.642Z,9.10
2022-12-12T15:15:58.824Z,9.57
2022-12-12T15:18:26.033Z,9.85
2022-12-12T15:20:57.512Z,8.90
2022-12-12T15:23:24.608Z,8.57
2022-12-12T15:25:55.664Z,9.18
2022-12-12T15:28:24.883Z,9.02
2022-12-12T15:30:53.638Z,9.07
2022-12-12T15:33:22.593Z,9.38
2022-12-12T15:35:53.094Z,8.48
2022-12-12T15:38:24.088Z,9.05
2022-12-12T15:40:52.895Z,9.55
2022-12-12T15:43:23.740Z,9.18
2022-12-12T15:45:55.917Z,9.90
2022-12-12T15:48:23.589Z,8.73
2022-12-12T15:50:50.674Z,8.90
2022-12-12T15:53:17.835Z,9.30
2022-12-12T15:55:53.184Z,9.05
2022-12-12T15:58:28.928Z,12.27
2022-12-12T16:01:08.186Z,14.20
2022-12-12T16:04:01.424Z,15.32
2022-12-12T16:06:33.021Z,14.07
2022-12-12T16:09:00.886Z,16.00
2022-12-12T16:11:41.644Z,20.63
2022-12-12T16:14:27.716Z,22.63
2022-12-12T16:17:01.473Z,17.65
2022-12-12T16:19:28.570Z,16.75
2022-12-12T16:21:56.143Z,17.95
2022-12-12T16:24:24.827Z,18.27
2022-12-12T16:26:52.871Z,20.55
2022-12-12T16:29:20.005Z,20.08
2022-12-12T16:31:48.080Z,19.73
2022-12-12T16:34:15.228Z,18.60
2022-12-12T16:36:42.689Z,18.42
2022-12-12T16:39:13.568Z,18.30
2022-12-12T16:41:41.048Z,20.05
2022-12-12T16:44:08.448Z,19.48
2022-12-12T16:46:35.559Z,19.40
2022-12-12T16:49:04.681Z,20.25
2022-12-12T16:51:34.308Z,16.40
2022-12-12T16:54:01.784Z,15.27
2022-12-12T16:56:29.130Z,14.10
2022-12-12T16:58:56.743Z,11.80
2022-12-12T17:01:24.073Z,12.50
2022-12-12T17:04:30.191Z,12.73
2022-12-12T17:06:57.607Z,15.50
2022-12-12T17:09:29.755Z,14.68
2022-12-12T17:11:57.243Z,14.50
2022-12-12T17:14:25.064Z,15.88
2022-12-12T17:16:53.747Z,16.40
2022-12-12T17:19:21.546Z,19.58
2022-12-12T17:21:48.745Z,19.77
2022-12-12T17:24:16.107Z,17.90
2022-12-12T17:26:43.204Z,17.15
2022-12-12T17:29:10.475Z,17.42
2022-12-12T17:31:37.622Z,18.42
2022-12-12T17:34:05.568Z,20.73
2022-12-12T17:36:33.214Z,19.70
2022-12-12T17:39:00.348Z,16.33
2022-12-12T17:41:27.462Z,16.92
2022-12-12T17:43:57.675Z,19.42
2022-12-12T17:46:25.132Z,22.08
2022-12-12T17:48:53.038Z,24.20
2022-12-12T17:51:23.844Z,27.60
2022-12-12T17:53:52.560Z,20.52
2022-12-12T17:56:21.411Z,22.38
2022-12-12T17:58:49.515Z,19.23
2022-12-12T18:01:18.344Z,17.85
2022-12-12T18:03:45.720Z,16.85
2022-12-12T18:06:13.411Z,17.10
2022-12-12T18:08:41.593Z,17.23
2022-12-12T18:11:09.841Z,17.13
2022-12-12T18:13:38.697Z,18.83
2022-12-12T18:16:06.646Z,18.48
2022-12-12T18:18:34.183Z,17.83
2022-12-12T18:21:10.536Z,18.42
2022-12-12T18:23:40.506Z,17.83
2022-12-12T18:26:11.479Z,17.67
2022-12-12T18:28:39.372Z,17.90
2022-12-12T18:31:07.058Z,17.20
2022-12-12T18:33:34.182Z,17.33
2022-12-12T18:36:05.583Z,18.08
2022-12-12T18:38:32.954Z,18.25
2022-12-12T18:41:00.469Z,20.38
2022-12-12T18:43:28.479Z,21.00
2022-12-12T18:45:56.141Z,20.48
2022-12-12T18:48:23.372Z,21.08
2022-12-12T18:50:50.509Z,21.55
2022-12-12T18:53:17.947Z,16.60
2022-12-12T18:55:45.077Z,18.48
2022-12-12T18:58:12.481Z,17.75
2022-12-12T19:00:40.372Z,18.10
2022-12-12T19:03:08.395Z,18.25
2022-12-12T19:05:40.559Z,19.73
2022-12-12T19:08:08.005Z,22.10
2022-12-12T19:10:35.919Z,19.23
2022-12-12T19:13:03.018Z,18.15
2022-12-12T19:15:30.633Z,18.13
2022-12-12T19:17:57.894Z,19.92
2022-12-12T19:20:25.443Z,18.45
2022-12-12T19:22:52.542Z,19.35
2022-12-12T19:25:20.831Z,19.67
2022-12-12T19:27:48.060Z,20.92
2022-12-12T19:30:16.420Z,17.67
2022-12-12T19:32:48.536Z,19.42
2022-12-12T19:35:16.368Z,26.13
2022-12-12T19:37:43.794Z,21.00
2022-12-12T19:40:11.606Z,18.38
2022-12-12T19:42:39.082Z,17.25
2022-12-12T19:45:07.300Z,17.80
2022-12-12T19:47:34.456Z,16.13
2022-12-12T19:50:01.814Z,20.48
2022-12-12T19:52:29.237Z,22.13
2022-12-12T19:54:56.368Z,20.65
2022-12-12T19:57:26.248Z,16.35
2022-12-12T19:59:53.648Z,16.77
2022-12-12T20:02:20.820Z,14.80
2022-12-12T20:04:48.018Z,15.88
2022-12-12T20:07:15.242Z,15.60
2022-12-12T20:09:42.335Z,20.00
2022-12-12T20:12:09.727Z,24.90
2022-12-12T20:14:36.834Z,24.65
2022-12-12T20:17:04.499Z,23.23
2022-12-12T20:19:31.990Z,23.02
2022-12-12T20:22:01.152Z,20.75
2022-12-12T20:24:29.047Z,16.90
2022-12-12T20:26:56.375Z,18.45
2022-12-12T20:29:24.124Z,17.10
2022-12-12T20:31:51.654Z,19.13
2022-12-12T20:34:21.739Z,19.77
2022-12-12T20:36:50.196Z,22.25
2022-12-12T20:39:19.403Z,17.52
2022-12-12T20:44:14.114Z,13.55
2022-12-12T20:46:42.729Z,18.05
2022-12-12T20:49:11.130Z,17.98
2022-12-12T20:51:55.747Z,15.30
2022-12-12T20:54:24.857Z,17.35
2022-12-12T20:56:52.220Z,18.17
2022-12-12T20:59:19.403Z,18.08
2022-12-12T21:01:47.269Z,17.55
2022-12-12T21:04:15.274Z,15.93
2022-12-12T21:06:44.513Z,16.52
2022-12-12T21:09:16.208Z,17.15
2022-12-12T21:11:46.700Z,10.15
2022-12-12T21:14:14.064Z,12.88
2022-12-12T21:16:41.375Z,13.38
2022-12-12T21:19:11.285Z,13.65
2022-12-12T21:21:39.112Z,12.20
2022-12-12T21:24:06.443Z,15.02
2022-12-12T21:26:33.596Z,15.10
2022-12-12T21:29:02.095Z,14.48
2022-12-12T21:31:33.719Z,15.00
2022-12-12T21:34:01.193Z,17.48
2022-12-12T21:36:28.995Z,16.88
2022-12-12T21:38:57.350Z,16.63
2022-12-12T21:41:24.859Z,14.13
2022-12-12T21:43:52.487Z,14.10
2022-12-12T21:46:21.060Z,14.35
2022-12-12T21:49:07.951Z,11.57
2022-12-12T21:51:35.590Z,11.23
2022-12-12T21:54:03.486Z,12.13
2022-12-12T21:56:31.009Z,12.98
2022-12-12T21:58:58.683Z,13.00
2022-12-12T22:01:26.197Z,14.57
2022-12-12T22:03:54.122Z,14.02
2022-12-12T22:06:22.790Z,14.13
2022-12-12T22:08:50.174Z,13.60
2022-12-12T22:11:40.178Z,12.90
2022-12-12T22:14:07.180Z,14.68
2022-12-12T22:16:34.749Z,15.10
2022-12-12T22:19:05.732Z,14.65
2022-12-12T22:21:33.319Z,18.45
2022-12-12T22:24:00.619Z,15.98
2022-12-12T22:26:29.524Z,17.60
2022-12-12T22:28:58.327Z,15.82
2022-12-12T22:31:46.643Z,15.95
2022-12-12T22:34:15.644Z,15.57
2022-12-12T22:36:45.610Z,15.45
2022-12-12T22:39:24.296Z,15.45
2022-12-12T22:41:51.553Z,16.88
2022-12-12T22:44:19.542Z,13.95
2022-12-12T22:46:47.904Z,14.73
2022-12-12T22:49:20.703Z,15.50
2022-12-12T22:51:48.666Z,16.15
2022-12-12T22:54:15.901Z,13.70
2022-12-12T22:56:54.380Z,16.80
2022-12-12T22:59:21.606Z,18.73
2022-12-12T23:01:48.895Z,17.58
2022-12-12T23:04:16.140Z,15.68
2022-12-12T23:06:43.814Z,15.45
2022-12-12T23:09:15.457Z,16.50
2022-12-12T23:11:43.056Z,15.50
2022-12-12T23:14:14.211Z,13.85
2022-12-12T23:16:41.680Z,13.80
2022-12-12T23:19:09.192Z,13.15
2022-12-12T23:21:37.291Z,12.40
2022-12-12T23:24:05.059Z,12.20
2022-12-12T23:26:33.431Z,11.68
2022-12-12T23:29:00.769Z,11.77
2022-12-12T23:31:29.214Z,9.27
2022-12-12T23:33:57.736Z,10.07
2022-12-12T23:36:25.502Z,9.18
2022-12-12T23:38:56.580Z,8.63
2022-12-12T23:41:24.252Z,7.35
2022-12-12T23:43:51.714Z,6.28
2022-12-12T23:46:34.121Z,8.75
2022-12-12T23:49:01.215Z,7.63
2022-12-12T23:51:29.897Z,7.80
2022-12-12T23:54:01.654Z,5.63
2022-12-12T23:56:29.279Z,8.98
2022-12-12T23:58:57.056Z,8.75
